METAR Data
IDs: Format: Raw Decoded Include TAF

Data at: 0857 UTC 26 Jan 2020

KOCQ 260835Z AUTO 27005KT 7SM SCT036 BKN044 OVC070 00/M01 A2982 RMK AO1 T00001007
KOCQ 260815Z AUTO 27004KT 10SM SCT031 BKN060 OVC070 00/00 A2982 RMK AO1 T00001005
KOCQ 260755Z AUTO 28005KT 5SM BKN033 BKN046 OVC060 00/M01 A2981 RMK AO1 T00001007
KOCQ 260735Z AUTO 29004KT 7SM SCT031 BKN037 OVC044 00/M01 A2981 RMK AO1 T00001011
KOCQ 260715Z AUTO 30004KT 10SM SCT032 SCT039 OVC044 00/M01 A2981 RMK AO1 T00001010
KOCQ 260655Z AUTO 29005KT 10SM SCT020 BKN032 OVC047 00/M01 A2981 RMK AO1 T00001010
KOCQ 260635Z AUTO 29004KT 10SM SCT020 BKN032 OVC039 00/M01 A2981 RMK AO1 T00001007
KOCQ 260615Z AUTO 29005KT 10SM SCT010 BKN034 OVC050 00/00 A2982 RMK AO1 T00001005
KOCQ 260555Z AUTO 31003KT 10SM SCT014 BKN022 OVC050 00/00 A2981 RMK AO1 T00001005 10010 20000 400121002
KOCQ 260535Z AUTO 30005KT 4SM SCT007 BKN018 OVC037 00/00 A2981 RMK AO1 T00001002
KOCQ 260515Z AUTO 30004KT 5SM SCT006 BKN016 OVC022 00/00 A2981 RMK AO1 T00010000
KOCQ 260455Z AUTO 00000KT 5SM BKN009 BKN014 OVC036 00/00 A2981 RMK AO1 T00010000
KOCQ 260435Z AUTO 30003KT 5SM SCT010 BKN027 OVC036 00/00 A2981 RMK AO1 T00020000
KOCQ 260415Z AUTO 31003KT 7SM BKN027 BKN033 OVC045 01/00 A2981 RMK AO1 T00050000
KOCQ 260355Z AUTO 31004KT 10SM BKN047 OVC060 01/00 A2981 RMK AO1 T00050000
KOCQ 260335Z AUTO 32004KT 10SM SCT048 OVC050 01/00 A2980 RMK AO1 T00061002
KOCQ 260315Z AUTO 30004KT 10SM OVC048 01/00 A2980 RMK AO1 T00100000
KOCQ 260255Z AUTO 31004KT 10SM OVC050 01/00 A2980 RMK AO1 T00080002
KOCQ 260235Z AUTO 29004KT 10SM SCT017 OVC050 01/00 A2980 RMK AO1 T00060003
KOCQ 260215Z AUTO 28003KT 10SM SCT017 OVC055 01/00 A2980 RMK AO1 T00060003
KOCQ 260155Z AUTO 28003KT 10SM SCT019 SCT026 OVC055 01/00 A2980 RMK AO1 T00050002
KOCQ 260135Z AUTO 29003KT 5SM BKN010 BKN025 OVC044 01/00 A2981 RMK AO1 T00070003
KOCQ 260115Z AUTO 00000KT 7SM BKN012 OVC016 00/00 A2981 RMK AO1 T00040001
KOCQ 260055Z AUTO 27003KT 10SM BKN014 BKN023 OVC038 01/00 A2981 RMK AO1 T00050001
KOCQ 260035Z AUTO 28004KT 10SM BKN016 OVC020 01/00 A2981 RMK AO1 T00060002
KOCQ 260015Z AUTO 27004KT 10SM SCT016 OVC022 01/00 A2980 RMK AO1 T00060001
KOCQ 252355Z AUTO 27003KT 10SM OVC024 00/00 A2980 RMK AO1 T00040000 10012 20004
KOCQ 252335Z AUTO 27004KT 10SM BKN019 OVC026 01/00 A2980 RMK AO1 T00050001
KOCQ 252315Z AUTO 27003KT 10SM OVC025 01/00 A2979 RMK AO1 T00050001
KOCQ 252255Z AUTO 27003KT 10SM BKN027 BKN039 OVC048 01/00 A2979 RMK AO1 T00050002
KOCQ 252235Z AUTO 00000KT 10SM SCT021 OVC027 01/00 A2979 RMK AO1 T00100003
KOCQ 252215Z AUTO 00000KT 10SM BKN021 OVC025 01/00 A2979 RMK AO1 T00110001
KOCQ 252155Z AUTO 00000KT 10SM BKN015 OVC020 01/00 A2979 RMK AO1 T00120001
KOCQ 252135Z AUTO 00000KT 10SM OVC015 01/00 A2978 RMK AO1 T00120001
KOCQ 252115Z AUTO 35003KT 10SM OVC015 01/00 A2978 RMK AO1 T00120000
KOCQ 252055Z AUTO 33003KT 10SM OVC011 01/00 A2978 RMK AO1 T00110001
KOCQ 252035Z AUTO 33003KT 10SM OVC008 01/00 A2978 RMK AO1 T00100000
KOCQ 252015Z AUTO 33004KT 10SM OVC008 01/00 A2977 RMK AO1 T00100000
KOCQ 251955Z AUTO 33004KT 10SM OVC008 01/00 A2977 RMK AO1 T00100000
KOCQ 251935Z AUTO 33003KT 10SM OVC006 01/00 A2976 RMK AO1 T00100001
KOCQ 251915Z AUTO 36003KT 10SM OVC006 01/00 A2976 RMK AO1 T00100000
KOCQ 251855Z AUTO 36004KT 7SM OVC006 01/00 A2977 RMK AO1 T00080000
KOCQ 251835Z AUTO 36004KT 7SM OVC006 01/00 A2977 RMK AO1 T00070000
KOCQ 251815Z AUTO 36004KT 7SM OVC004 01/00 A2978 RMK AO1 T00060000
KOCQ 251755Z AUTO 01004KT 10SM OVC004 01/00 A2978 RMK AO1 T00050000 10005 21002
KOCQ 251735Z AUTO 01005KT 7SM OVC002 00/00 A2978 RMK AO1 T00040000
KOCQ 251715Z AUTO 01005KT 4SM OVC002 00/00 A2979 RMK AO1 T00030000
KOCQ 251655Z AUTO 01005KT 1 3/4SM OVC002 00/00 A2979 RMK AO1 T00030000
KOCQ 251635Z AUTO 36005KT 2 1/2SM OVC004 00/00 A2979 RMK AO1 T00020000
KOCQ 251615Z AUTO 36005KT 5SM OVC004 00/00 A2979 RMK AO1 T00010000
KOCQ 251555Z AUTO 35003KT 10SM OVC004 00/00 A2979 RMK AO1 T00001001
KOCQ 251535Z AUTO 35003KT 10SM OVC004 00/00 A2979 RMK AO1 T00001002
KOCQ 251515Z AUTO 00000KT 10SM OVC004 00/00 A2978 RMK AO1 T00001002
KOCQ 251455Z AUTO 00000KT 7SM OVC004 00/00 A2977 RMK AO1 T00001002
KOCQ 251435Z AUTO 35003KT 4SM OVC004 00/00 A2977 RMK AO1 T00001002
KOCQ 251415Z AUTO 35003KT 5SM OVC004 00/00 A2977 RMK AO1 T00001002
KOCQ 251355Z AUTO 00000KT 3SM OVC004 00/00 A2978 RMK AO1 T10011003
KOCQ 251335Z AUTO 00000KT 2 1/2SM OVC004 00/00 A2977 RMK AO1 T10011003
KOCQ 251315Z AUTO 00000KT 4SM OVC004 00/00 A2977 RMK AO1 T10011005
KOCQ 251255Z AUTO 00000KT 3SM OVC004 00/00 A2977 RMK AO1 T10021005
KOCQ 251235Z AUTO 01003KT 10SM OVC006 00/M01 A2977 RMK AO1 T10021006
KOCQ 251215Z AUTO 01003KT 10SM OVC006 00/M01 A2976 RMK AO1 T10021006
KOCQ 251155Z AUTO 01003KT 10SM OVC006 00/M01 A2976 RMK AO1 60008 70014 T10021006 10000 21002
KOCQ 251135Z AUTO 36003KT 7SM OVC006 00/M01 A2976 RMK AO1 T10021006
KOCQ 251115Z AUTO 01003KT 10SM OVC006 00/M01 A2975 RMK AO1 T10021006
KOCQ 251055Z AUTO 01003KT 7SM OVC006 00/00 A2975 RMK AO1 P0001 T10021005
KOCQ 251035Z AUTO 36004KT 3SM OVC004 00/00 A2975 RMK AO1 P0001 T10021005
KOCQ 251015Z AUTO 36003KT 2 1/2SM OVC004 00/00 A2975 RMK AO1 P0001 T10021005
KOCQ 250955Z AUTO 01003KT 2SM OVC004 00/00 A2976 RMK AO1 P0002 T10021005
KOCQ 250935Z AUTO 36004KT 1 1/4SM OVC004 00/00 A2976 RMK AO1 P0002 T10021005
KOCQ 250915Z AUTO 36003KT 1 1/4SM OVC004 00/00 A2976 RMK AO1 T10021004
KOCQ 250855Z AUTO 01004KT 2 1/2SM OVC004 00/00 A2976 RMK AO1 P0001 60004 T10011003
KOCQ 250835Z AUTO 01004KT 1 3/4SM OVC004 00/00 A2977 RMK AO1 P0001 T00001002
KOCQ 250815Z AUTO 01004KT 2SM OVC004 00/00 A2977 RMK AO1 T00001003
KOCQ 250755Z AUTO 02006KT 5SM OVC004 00/00 A2978 RMK AO1 P0002 T00001002
KOCQ 250735Z AUTO 02004KT 1 1/2SM OVC004 00/00 A2978 RMK AO1 P0002 T00001002
KOCQ 250715Z AUTO 01005KT 1 1/2SM OVC004 00/00 A2978 RMK AO1 VIS 1V3 P0001 T00001001
KOCQ 250655Z AUTO 01005KT 2SM OVC004 00/00 A2978 RMK AO1 P0001 T00001002
KOCQ 250635Z AUTO 01005KT 2 1/2SM OVC004 00/00 A2978 RMK AO1 T00001002
KOCQ 250615Z AUTO 02005KT 4SM OVC004 00/00 A2979 RMK AO1 T00001001
KOCQ 250555Z AUTO 01006KT 7SM OVC004 00/00 A2979 RMK AO1 P0001 60002 T00001001 10005 20000 400100000
KOCQ 250535Z AUTO 02006KT 3SM OVC004 00/00 A2980 RMK AO1 P0001 T00000000
KOCQ 250515Z AUTO 02007KT 3SM OVC004 00/00 A2981 RMK AO1 T00010000
KOCQ 250455Z AUTO 04007KT 5SM OVC004 00/00 A2982 RMK AO1 T00020000
KOCQ 250435Z AUTO 03007KT 5SM OVC004 00/00 A2981 RMK AO1 T00020000
KOCQ 250415Z AUTO 03007KT 4SM OVC004 00/00 A2981 RMK AO1 T00020000
KOCQ 250355Z AUTO 03006KT 7SM OVC004 00/00 A2982 RMK AO1 T00020000
KOCQ 250335Z AUTO 03008KT 7SM OVC004 00/00 A2982 RMK AO1 T00010000
KOCQ 250315Z AUTO 03008KT 7SM OVC004 00/00 A2984 RMK AO1 T00010000
KOCQ 250255Z AUTO 03005KT 4SM OVC004 00/00 A2984 RMK AO1 P0001 60001 T00010000
KOCQ 250235Z AUTO 03005KT 5SM OVC004 00/00 A2984 RMK AO1 P0001 T00000000
KOCQ 250215Z AUTO 02007KT 2SM OVC004 00/00 A2984 RMK AO1 P0001 T00000000
KOCQ 250155Z AUTO 03007KT 10SM OVC004 00/00 A2985 RMK AO1 T00020000
KOCQ 250135Z AUTO 03006KT 7SM OVC004 00/00 A2985 RMK AO1 T00010000
KOCQ 250115Z AUTO 03007KT 7SM OVC004 00/00 A2986 RMK AO1 T00010000
KOCQ 250055Z AUTO 04006KT 7SM OVC004 00/00 A2987 RMK AO1 T00020000
KOCQ 250035Z AUTO 03007KT 5SM OVC004 00/00 A2987 RMK AO1 T00020000
KOCQ 250015Z AUTO 04007KT 5SM OVC004 00/00 A2987 RMK AO1 T00030000
KOCQ 242355Z AUTO 05005KT 5SM OVC004 01/00 A2988 RMK AO1 60001 T00050001 10010 20003
KOCQ 242335Z AUTO 04006KT 5SM OVC004 01/00 A2988 RMK AO1 T00050001
KOCQ 242315Z AUTO 05006KT 4SM OVC004 01/00 A2988 RMK AO1 T00060003
KOCQ 242235Z AUTO 04007KT 1 3/4SM OVC004 01/01 A2988 RMK AO1 T00080005
KOCQ 242215Z AUTO 04007KT 1 3/4SM OVC004 01/01 A2988 RMK AO1 T00080005
KOCQ 242155Z AUTO 04007KT 2SM OVC004 01/01 A2989 RMK AO1 T00080005
KOCQ 242135Z AUTO 05006KT 2 1/2SM OVC004 01/01 A2989 RMK AO1 T00080005
KOCQ 242115Z AUTO 05007KT 2SM OVC004 01/01 A2990 RMK AO1 T00070005